createdAt,value
2023-02-16T00:01:24.306Z,80.92
2023-02-16T00:03:54.508Z,81.15
2023-02-16T00:06:24.333Z,81.12
2023-02-16T00:08:54.259Z,80.95
2023-02-16T00:11:47.613Z,80.74
2023-02-16T00:14:16.274Z,80.48
2023-02-16T00:16:44.771Z,81.02
2023-02-16T00:19:19.101Z,82.30
2023-02-16T00:21:48.902Z,82.87
2023-02-16T00:24:17.487Z,81.95
2023-02-16T00:26:46.591Z,81.46
2023-02-16T00:29:38.723Z,81.20
2023-02-16T00:32:12.558Z,81.24
2023-02-16T00:34:41.834Z,81.26
2023-02-16T00:37:12.744Z,81.25
2023-02-16T00:39:42.449Z,81.55
2023-02-16T00:42:33.141Z,81.50
2023-02-16T00:45:01.976Z,81.16
2023-02-16T00:47:38.539Z,81.57
2023-02-16T00:50:16.813Z,81.80
2023-02-16T00:52:48.568Z,81.65
2023-02-16T00:55:20.036Z,81.30
2023-02-16T00:57:54.034Z,81.71
2023-02-16T01:00:36.674Z,82.22
2023-02-16T01:03:08.933Z,81.52
2023-02-16T01:05:37.733Z,81.09
2023-02-16T01:08:32.937Z,81.15
2023-02-16T01:11:07.726Z,80.87
2023-02-16T01:13:55.661Z,81.20
2023-02-16T01:16:35.766Z,81.76
2023-02-16T01:19:04.945Z,81.42
2023-02-16T01:21:33.321Z,81.13
2023-02-16T01:24:02.930Z,81.20
2023-02-16T01:26:33.574Z,80.70
2023-02-16T01:29:01.742Z,80.99
2023-02-16T01:31:30.012Z,81.11
2023-02-16T01:33:58.375Z,80.98
2023-02-16T01:36:42.628Z,81.00
2023-02-16T01:39:17.031Z,81.25
2023-02-16T01:42:32.438Z,81.40
2023-02-16T01:45:10.027Z,81.17
2023-02-16T01:47:56.132Z,81.02
2023-02-16T01:50:27.507Z,80.43
2023-02-16T01:53:03.757Z,80.11
2023-02-16T01:55:42.956Z,79.95
2023-02-16T01:58:32.513Z,80.42
2023-02-16T02:01:00.620Z,80.46
2023-02-16T02:03:52.316Z,80.63
2023-02-16T02:06:24.298Z,80.66
2023-02-16T02:09:12.017Z,80.24
2023-02-16T02:11:46.122Z,80.18
2023-02-16T02:14:33.370Z,80.28
2023-02-16T02:17:06.248Z,80.16
2023-02-16T02:19:45.458Z,80.25
2023-02-16T02:22:51.846Z,80.26
2023-02-16T02:25:58.007Z,80.45
2023-02-16T02:28:47.262Z,80.89
2023-02-16T02:31:34.591Z,81.24
2023-02-16T02:34:47.634Z,81.10
2023-02-16T02:37:33.390Z,81.45
2023-02-16T02:40:13.863Z,83.05
2023-02-16T02:43:03.238Z,83.12
2023-02-16T02:45:41.445Z,83.55
2023-02-16T02:48:10.138Z,83.29
2023-02-16T02:51:07.694Z,83.11
2023-02-16T02:54:20.506Z,84.30
2023-02-16T02:57:13.638Z,83.49
2023-02-16T03:00:08.883Z,83.23
2023-02-16T03:02:40.838Z,84.00
2023-02-16T03:05:11.636Z,84.47
2023-02-16T03:07:48.592Z,84.45
2023-02-16T03:10:42.311Z,84.69
2023-02-16T03:13:18.795Z,84.34
2023-02-16T03:15:50.171Z,84.13
2023-02-16T03:18:37.162Z,83.94
2023-02-16T03:21:25.090Z,84.17
2023-02-16T03:24:14.053Z,85.19
2023-02-16T03:27:02.181Z,86.20
2023-02-16T03:29:32.534Z,86.40
2023-02-16T03:32:01.732Z,85.89
2023-02-16T03:34:32.062Z,85.80
2023-02-16T03:37:00.937Z,85.77
2023-02-16T03:39:31.135Z,85.48
2023-02-16T03:41:59.223Z,85.49
2023-02-16T03:44:27.279Z,85.06
2023-02-16T03:46:55.578Z,84.80
2023-02-16T03:49:23.852Z,84.62
2023-02-16T03:51:51.902Z,84.21
2023-02-16T03:54:19.973Z,84.73
2023-02-16T03:56:48.160Z,85.57
2023-02-16T03:59:16.230Z,85.43
2023-02-16T04:01:44.512Z,85.61
2023-02-16T04:04:13.130Z,86.06
2023-02-16T04:06:41.572Z,85.86
2023-02-16T04:09:11.211Z,85.57
2023-02-16T04:11:58.295Z,85.76
2023-02-16T04:14:26.575Z,86.04
2023-02-16T04:16:56.066Z,86.82
2023-02-16T04:19:25.071Z,87.47
2023-02-16T04:21:53.365Z,87.67
2023-02-16T04:24:21.412Z,87.61
2023-02-16T04:26:49.795Z,87.41
2023-02-16T04:29:18.274Z,87.50
2023-02-16T04:31:46.859Z,87.50
2023-02-16T04:34:15.032Z,87.39
2023-02-16T04:36:43.088Z,86.39
2023-02-16T04:39:11.161Z,86.20
2023-02-16T04:41:39.423Z,86.63
2023-02-16T04:44:07.321Z,86.67
2023-02-16T04:46:35.405Z,86.40
2023-02-16T04:49:03.891Z,86.46
2023-02-16T04:51:32.119Z,86.25
2023-02-16T04:54:00.219Z,86.58
2023-02-16T04:56:28.400Z,86.95
2023-02-16T04:58:56.546Z,86.90
2023-02-16T05:01:27.400Z,86.90
2023-02-16T05:03:56.183Z,86.11
2023-02-16T05:06:24.449Z,85.52
2023-02-16T05:08:52.632Z,86.14
2023-02-16T05:11:39.536Z,86.28
2023-02-16T05:14:26.608Z,86.10
2023-02-16T05:16:54.515Z,86.36
2023-02-16T05:19:22.509Z,87.05
2023-02-16T05:21:50.760Z,86.97
2023-02-16T05:24:18.943Z,86.61
2023-02-16T05:26:47.058Z,86.77
2023-02-16T05:29:15.166Z,87.09
2023-02-16T05:31:43.328Z,86.72
2023-02-16T05:34:11.917Z,86.19
2023-02-16T05:36:40.114Z,86.47
2023-02-16T05:39:08.257Z,86.16
2023-02-16T05:41:36.441Z,85.69
2023-02-16T05:44:05.502Z,85.60
2023-02-16T05:46:36.052Z,85.44
2023-02-16T05:49:06.202Z,85.93
2023-02-16T05:51:35.010Z,86.00
2023-02-16T05:54:03.752Z,86.12
2023-02-16T05:56:32.680Z,86.36
2023-02-16T05:59:01.043Z,86.72
2023-02-16T06:01:30.749Z,86.67
2023-02-16T06:03:58.877Z,86.62
2023-02-16T06:06:27.099Z,86.35
2023-02-16T06:08:55.348Z,86.27
2023-02-16T06:11:38.638Z,86.70
2023-02-16T06:14:13.201Z,86.88
2023-02-16T06:16:43.434Z,86.58
2023-02-16T06:19:12.563Z,86.85
2023-02-16T06:21:41.647Z,86.99
2023-02-16T06:24:12.091Z,87.16
2023-02-16T06:26:41.299Z,87.13
2023-02-16T06:29:10.007Z,86.44
2023-02-16T06:31:38.381Z,86.01
2023-02-16T06:34:07.298Z,86.16
2023-02-16T06:36:35.399Z,86.09
2023-02-16T06:39:03.950Z,85.81
2023-02-16T06:41:32.269Z,86.02
2023-02-16T06:44:05.742Z,85.71
2023-02-16T06:46:34.886Z,85.11
2023-02-16T06:49:03.088Z,85.35
2023-02-16T06:51:31.364Z,85.85
2023-02-16T06:53:59.531Z,86.18
2023-02-16T06:56:28.047Z,85.84
2023-02-16T06:58:56.128Z,85.86
2023-02-16T07:01:26.238Z,85.59
2023-02-16T07:03:56.689Z,85.67
2023-02-16T07:06:26.989Z,85.52
2023-02-16T07:08:55.332Z,86.04
2023-02-16T07:11:23.518Z,86.28
2023-02-16T07:13:51.677Z,86.33
2023-02-16T07:16:19.881Z,85.98
2023-02-16T07:18:48.272Z,85.89
2023-02-16T07:21:16.412Z,85.52
2023-02-16T07:23:45.603Z,85.52
2023-02-16T07:26:13.973Z,85.87
2023-02-16T07:28:42.078Z,85.87
2023-02-16T07:31:12.507Z,85.72
2023-02-16T07:33:41.063Z,86.46
2023-02-16T07:36:10.607Z,86.71
2023-02-16T07:38:42.098Z,86.60
2023-02-16T07:41:11.575Z,86.46
2023-02-16T07:43:43.027Z,86.14
2023-02-16T07:46:11.440Z,86.12
2023-02-16T07:48:39.719Z,85.77
2023-02-16T07:51:08.454Z,85.34
2023-02-16T07:53:36.796Z,84.72
2023-02-16T07:56:05.362Z,84.66
2023-02-16T07:58:33.489Z,84.89
2023-02-16T08:01:09.701Z,84.82
2023-02-16T08:03:38.801Z,84.61
2023-02-16T08:06:08.855Z,84.80
2023-02-16T08:08:37.441Z,84.27
2023-02-16T08:11:11.155Z,84.19
2023-02-16T08:13:40.179Z,84.41
2023-02-16T08:16:14.547Z,84.78
2023-02-16T08:18:42.677Z,84.86
2023-02-16T08:21:33.064Z,84.97
2023-02-16T08:24:02.778Z,84.85
2023-02-16T08:26:36.947Z,84.82
2023-02-16T08:29:07.188Z,84.92
2023-02-16T08:31:36.837Z,84.59
2023-02-16T08:34:06.026Z,84.91
2023-02-16T08:36:36.545Z,84.82
2023-02-16T08:39:18.050Z,84.99
2023-02-16T08:41:48.184Z,84.40
2023-02-16T08:44:18.192Z,84.52
2023-02-16T08:46:48.023Z,83.49
2023-02-16T08:49:18.655Z,83.39
2023-02-16T08:51:51.511Z,84.08
2023-02-16T08:54:23.113Z,83.84
2023-02-16T08:56:51.307Z,83.35
2023-02-16T08:59:21.871Z,83.01
2023-02-16T09:01:50.727Z,82.82
2023-02-16T09:04:22.910Z,82.06
2023-02-16T09:06:52.411Z,82.15
2023-02-16T09:09:20.813Z,82.53
2023-02-16T09:11:49.983Z,82.38
2023-02-16T09:14:19.393Z,81.97
2023-02-16T09:16:48.249Z,81.74
2023-02-16T09:19:20.777Z,82.10
2023-02-16T09:21:51.227Z,81.92
2023-02-16T09:24:19.438Z,81.86
2023-02-16T09:26:48.129Z,81.90
2023-02-16T09:29:16.154Z,81.90
2023-02-16T09:31:45.686Z,81.88
2023-02-16T09:34:22.828Z,81.62
2023-02-16T09:36:51.409Z,81.03
2023-02-16T09:39:19.495Z,81.46
2023-02-16T09:41:54.418Z,81.86
2023-02-16T09:45:01.245Z,81.60
2023-02-16T09:47:32.125Z,81.15
2023-02-16T09:50:06.643Z,81.34
2023-02-16T09:52:53.523Z,81.73
2023-02-16T09:55:22.997Z,81.19
2023-02-16T09:57:56.810Z,81.03
2023-02-16T10:00:34.007Z,81.70
2023-02-16T10:03:18.467Z,81.93
2023-02-16T10:06:14.190Z,82.53
2023-02-16T10:08:47.460Z,82.27
2023-02-16T10:11:46.771Z,82.16
2023-02-16T10:14:33.898Z,82.61
2023-02-16T10:17:28.421Z,83.21
2023-02-16T10:20:03.226Z,83.06
2023-02-16T10:22:33.958Z,82.97
2023-02-16T10:25:06.633Z,83.08
2023-02-16T10:27:40.914Z,83.04
2023-02-16T10:30:18.840Z,83.54
2023-02-16T10:33:01.992Z,83.55
2023-02-16T10:36:08.754Z,83.76
2023-02-16T10:38:51.544Z,83.71
2023-02-16T10:41:28.145Z,83.28
2023-02-16T10:44:23.050Z,82.73
2023-02-16T10:47:04.535Z,82.52
2023-02-16T10:49:36.088Z,82.58
2023-02-16T10:52:05.081Z,82.34
2023-02-16T10:54:33.864Z,82.44
2023-02-16T10:57:22.633Z,83.00
2023-02-16T10:59:51.164Z,82.62
2023-02-16T11:02:47.467Z,82.60
2023-02-16T11:05:40.636Z,82.27
2023-02-16T11:08:12.925Z,82.46
2023-02-16T11:10:40.939Z,82.30
2023-02-16T11:13:28.562Z,81.66
2023-02-16T11:16:05.427Z,81.69
2023-02-16T11:18:40.636Z,81.53
2023-02-16T11:21:11.162Z,81.49
2023-02-16T11:23:45.214Z,81.70
2023-02-16T11:26:13.977Z,81.46
2023-02-16T11:28:48.031Z,81.06
2023-02-16T11:31:38.083Z,81.22
2023-02-16T11:34:24.802Z,81.31
2023-02-16T11:37:03.421Z,80.94
2023-02-16T11:39:36.614Z,80.39
2023-02-16T11:42:23.319Z,80.24
2023-02-16T11:44:54.903Z,80.63
2023-02-16T11:47:22.835Z,80.51
2023-02-16T11:50:19.061Z,80.22
2023-02-16T11:52:52.946Z,80.82
2023-02-16T11:55:30.149Z,81.29
2023-02-16T11:58:17.901Z,80.88
2023-02-16T12:01:29.275Z,80.59
2023-02-16T12:04:30.311Z,80.68
2023-02-16T12:07:16.529Z,80.79
2023-02-16T12:10:10.186Z,80.78
2023-02-16T12:13:12.454Z,81.07
2023-02-16T12:15:55.101Z,80.69
2023-02-16T12:18:35.529Z,80.39
2023-02-16T12:21:34.875Z,80.45
2023-02-16T12:24:21.233Z,79.83
2023-02-16T12:26:58.010Z,79.36
2023-02-16T12:30:11.673Z,79.19
2023-02-16T12:33:08.163Z,78.54
2023-02-16T12:36:13.415Z,78.82
2023-02-16T12:38:56.955Z,78.51
2023-02-16T12:41:43.762Z,77.60
2023-02-16T12:44:37.509Z,77.41
2023-02-16T12:47:13.716Z,77.04
2023-02-16T12:49:56.517Z,75.50
2023-02-16T12:52:43.075Z,74.54
2023-02-16T12:55:54.909Z,73.72
2023-02-16T12:58:29.029Z,72.83
2023-02-16T13:01:12.427Z,71.45
2023-02-16T13:03:50.565Z,71.62
2023-02-16T13:06:21.797Z,71.51
2023-02-16T13:09:25.032Z,71.10
2023-02-16T13:12:05.977Z,71.33
2023-02-16T13:14:40.304Z,70.67
2023-02-16T13:17:21.579Z,70.82
2023-02-16T13:19:49.650Z,70.40
2023-02-16T13:22:47.122Z,69.67
2023-02-16T13:25:54.096Z,69.04
2023-02-16T13:28:25.601Z,69.09
2023-02-16T13:31:16.730Z,68.75
2023-02-16T13:33:58.042Z,68.91
2023-02-16T13:36:49.781Z,68.59
2023-02-16T13:39:36.475Z,69.22
2023-02-16T13:42:29.759Z,69.45
2023-02-16T13:45:04.054Z,69.74
2023-02-16T13:47:37.259Z,70.04
2023-02-16T13:50:09.325Z,69.48
2023-02-16T13:52:41.914Z,70.09
2023-02-16T13:55:38.029Z,70.15
2023-02-16T13:58:15.106Z,70.38
2023-02-16T14:00:48.901Z,70.66
2023-02-16T14:03:16.856Z,70.96
2023-02-16T14:05:48.153Z,71.30
2023-02-16T14:08:20.810Z,71.52
2023-02-16T14:10:55.478Z,71.95
2023-02-16T14:13:38.937Z,72.17
2023-02-16T14:16:22.671Z,72.47
2023-02-16T14:19:02.423Z,72.98
2023-02-16T14:21:44.070Z,72.78
2023-02-16T14:24:24.637Z,72.83
2023-02-16T14:27:02.067Z,73.14
2023-02-16T14:30:01.729Z,73.45
2023-02-16T14:32:38.636Z,72.98
2023-02-16T14:35:27.513Z,73.30
2023-02-16T14:37:58.186Z,73.31
2023-02-16T14:40:35.518Z,73.42
2023-02-16T14:43:12.105Z,73.60
2023-02-16T14:45:52.091Z,73.70
2023-02-16T14:48:58.520Z,73.60
2023-02-16T14:52:04.059Z,73.93
2023-02-16T14:54:41.505Z,73.98
2023-02-16T14:57:19.051Z,74.64
2023-02-16T14:59:53.300Z,74.30
2023-02-16T15:02:54.298Z,74.81
2023-02-16T15:05:26.671Z,74.55
2023-02-16T15:08:16.386Z,74.84
2023-02-16T15:10:48.948Z,74.87
2023-02-16T15:13:28.065Z,74.99
2023-02-16T15:15:59.434Z,75.10
2023-02-16T15:18:39.363Z,75.32
2023-02-16T15:21:25.095Z,75.34
2023-02-16T15:23:59.907Z,75.29
2023-02-16T15:26:33.751Z,75.54
2023-02-16T15:29:22.833Z,75.45
2023-02-16T15:31:51.404Z,76.56
2023-02-16T15:34:34.028Z,75.92
2023-02-16T15:37:24.430Z,75.92
2023-02-16T15:40:15.905Z,76.15
2023-02-16T15:42:44.688Z,76.88
2023-02-16T15:45:29.598Z,76.80
2023-02-16T15:48:35.154Z,76.84
2023-02-16T15:51:20.173Z,77.00
2023-02-16T15:54:03.687Z,76.73
2023-02-16T15:56:49.226Z,77.79
2023-02-16T15:59:54.265Z,77.87
2023-02-16T16:02:31.457Z,78.83
2023-02-16T16:05:02.504Z,79.06
2023-02-16T16:07:36.696Z,79.01
2023-02-16T16:10:17.273Z,78.84
2023-02-16T16:12:46.569Z,79.17
2023-02-16T16:15:24.155Z,79.06
2023-02-16T16:17:54.820Z,78.91
2023-02-16T16:20:42.186Z,78.90
2023-02-16T16:23:16.724Z,79.12
2023-02-16T16:25:47.979Z,79.09
2023-02-16T16:28:28.359Z,78.88
2023-02-16T16:31:10.235Z,78.90
2023-02-16T16:34:03.099Z,78.81
2023-02-16T16:36:35.182Z,78.71
2023-02-16T16:39:18.942Z,78.82
2023-02-16T16:41:56.718Z,78.61
2023-02-16T16:44:43.894Z,78.96
2023-02-16T16:47:13.828Z,78.83
2023-02-16T16:49:58.647Z,78.73
2023-02-16T16:52:34.327Z,79.06
2023-02-16T16:55:28.209Z,79.31
2023-02-16T16:58:03.487Z,79.98
2023-02-16T17:00:36.645Z,79.90
2023-02-16T17:03:07.818Z,79.60
2023-02-16T17:05:38.576Z,79.57
2023-02-16T17:08:08.008Z,79.21
2023-02-16T17:10:39.382Z,79.74
2023-02-16T17:13:12.367Z,80.18
2023-02-16T17:15:50.240Z,79.97
2023-02-16T17:18:20.621Z,79.86
2023-02-16T17:20:52.946Z,79.86
2023-02-16T17:23:22.150Z,79.95
2023-02-16T17:25:50.944Z,79.99
2023-02-16T17:28:20.217Z,79.99
2023-02-16T17:30:49.517Z,79.71
2023-02-16T17:33:17.904Z,79.73
2023-02-16T17:35:45.982Z,79.61
2023-02-16T17:38:21.211Z,79.72
2023-02-16T17:40:51.743Z,79.82
2023-02-16T17:43:21.763Z,79.94
2023-02-16T17:45:51.910Z,80.15
2023-02-16T17:48:23.120Z,80.44
2023-02-16T17:50:52.020Z,80.31
2023-02-16T17:53:23.055Z,80.26
2023-02-16T17:55:53.987Z,80.46
2023-02-16T17:58:24.518Z,80.07
2023-02-16T18:00:52.916Z,80.02
2023-02-16T18:03:24.260Z,79.97
2023-02-16T18:05:52.605Z,80.08
2023-02-16T18:08:20.791Z,80.55
2023-02-16T18:10:51.471Z,82.07
2023-02-16T18:13:20.641Z,82.45
2023-02-16T18:15:50.028Z,82.82
2023-02-16T18:18:20.480Z,82.81
2023-02-16T18:20:48.500Z,82.49
2023-02-16T18:23:17.318Z,82.08
2023-02-16T18:25:45.925Z,82.06
2023-02-16T18:28:20.015Z,82.49
2023-02-16T18:30:50.191Z,82.30
2023-02-16T18:33:21.178Z,82.23
2023-02-16T18:35:52.203Z,82.56
2023-02-16T18:38:22.239Z,82.35
2023-02-16T18:40:51.852Z,82.50
2023-02-16T18:43:21.328Z,82.65
2023-02-16T18:45:49.934Z,82.65
2023-02-16T18:48:18.243Z,82.58
2023-02-16T18:50:49.361Z,82.42
2023-02-16T18:53:17.482Z,82.77
2023-02-16T18:55:45.363Z,82.38
2023-02-16T18:58:14.559Z,82.51
2023-02-16T19:00:42.947Z,83.14
2023-02-16T19:03:11.342Z,83.00
2023-02-16T19:05:39.592Z,82.54
2023-02-16T19:08:07.886Z,82.54
2023-02-16T19:10:35.934Z,82.58
2023-02-16T19:13:05.245Z,82.88
2023-02-16T19:15:35.987Z,82.98
2023-02-16T19:18:04.564Z,83.30
2023-02-16T19:20:33.040Z,83.22
2023-02-16T19:23:01.525Z,83.42
2023-02-16T19:25:29.443Z,83.05
2023-02-16T19:28:01.141Z,82.88
2023-02-16T19:30:29.488Z,83.11
2023-02-16T19:32:57.801Z,83.15
2023-02-16T19:35:25.870Z,83.07
2023-02-16T19:37:53.865Z,83.03
2023-02-16T19:40:22.005Z,82.73
2023-02-16T19:42:53.133Z,82.18
2023-02-16T19:45:21.623Z,82.54
2023-02-16T19:47:51.301Z,82.95
2023-02-16T19:50:19.601Z,82.34
2023-02-16T19:52:47.876Z,81.82
2023-02-16T19:55:15.913Z,82.18
2023-02-16T19:57:43.811Z,82.55
2023-02-16T20:00:14.273Z,82.48
2023-02-16T20:02:42.253Z,82.26
2023-02-16T20:05:11.392Z,82.52
2023-02-16T20:07:39.991Z,82.53
2023-02-16T20:10:08.567Z,82.49
2023-02-16T20:12:36.852Z,82.35
2023-02-16T20:15:06.256Z,82.48
2023-02-16T20:17:34.430Z,82.53
2023-02-16T20:20:02.466Z,82.59
2023-02-16T20:22:30.577Z,82.36
2023-02-16T20:24:58.627Z,82.05
2023-02-16T20:27:28.586Z,81.78
2023-02-16T20:29:56.674Z,81.91
2023-02-16T20:32:26.854Z,82.12
2023-02-16T20:34:55.044Z,82.08
2023-02-16T20:37:23.092Z,81.82
2023-02-16T20:39:51.162Z,81.92
2023-02-16T20:42:19.209Z,82.11
2023-02-16T20:44:47.207Z,81.99
2023-02-16T20:47:15.881Z,82.22
2023-02-16T20:49:43.956Z,82.24
2023-02-16T20:52:12.542Z,82.35
2023-02-16T20:54:41.315Z,82.51
2023-02-16T20:57:21.323Z,82.51
2023-02-16T20:59:55.397Z,82.25
2023-02-16T21:02:23.911Z,82.63
2023-02-16T21:04:51.985Z,82.39
2023-02-16T21:07:20.327Z,82.40
2023-02-16T21:09:48.561Z,82.50
2023-02-16T21:12:16.557Z,82.30
2023-02-16T21:14:44.627Z,82.34
2023-02-16T21:17:13.098Z,82.40
2023-02-16T21:19:41.384Z,82.28
2023-02-16T21:22:09.959Z,82.20
2023-02-16T21:24:41.026Z,82.91
2023-02-16T21:27:09.660Z,83.15
2023-02-16T21:29:37.945Z,82.82
2023-02-16T21:32:06.333Z,82.72
2023-02-16T21:34:35.346Z,82.82
2023-02-16T21:37:04.754Z,83.06
2023-02-16T21:40:04.864Z,83.03
2023-02-16T21:42:34.816Z,83.74
2023-02-16T21:45:12.900Z,83.89
2023-02-16T21:48:01.645Z,83.83
2023-02-16T21:50:31.024Z,83.54
2023-02-16T21:52:59.931Z,83.57
2023-02-16T21:55:46.333Z,83.23
2023-02-16T21:58:14.410Z,83.76
2023-02-16T22:00:43.141Z,83.97
2023-02-16T22:03:12.926Z,83.84
2023-02-16T22:05:41.082Z,83.85
2023-02-16T22:08:09.690Z,83.96
2023-02-16T22:10:37.726Z,83.66
2023-02-16T22:13:06.018Z,83.58
2023-02-16T22:15:38.512Z,83.67
2023-02-16T22:18:06.979Z,84.00
2023-02-16T22:20:34.938Z,84.30
2023-02-16T22:23:04.145Z,84.52
2023-02-16T22:25:32.414Z,84.55
2023-02-16T22:28:00.799Z,84.83
2023-02-16T22:30:29.227Z,84.50
2023-02-16T22:32:57.517Z,84.00
2023-02-16T22:35:25.525Z,83.93
2023-02-16T22:37:54.295Z,84.07
2023-02-16T22:40:22.221Z,84.11
2023-02-16T22:42:50.218Z,83.87
2023-02-16T22:45:18.426Z,84.00
2023-02-16T22:47:46.770Z,84.07
2023-02-16T22:50:14.993Z,84.07
2023-02-16T22:52:43.041Z,84.36
2023-02-16T22:55:11.226Z,85.15
2023-02-16T22:57:39.601Z,84.55
2023-02-16T23:00:11.111Z,84.39
2023-02-16T23:02:39.628Z,84.41
2023-02-16T23:05:08.099Z,84.37
2023-02-16T23:07:36.350Z,84.40
2023-02-16T23:10:05.341Z,84.34
2023-02-16T23:12:33.543Z,84.57
2023-02-16T23:15:01.593Z,84.61
2023-02-16T23:17:29.667Z,84.90
2023-02-16T23:19:57.770Z,84.36
2023-02-16T23:22:26.201Z,84.17
2023-02-16T23:25:14.181Z,84.04
2023-02-16T23:27:42.316Z,84.16
2023-02-16T23:30:11.040Z,84.33
2023-02-16T23:32:40.133Z,84.12
2023-02-16T23:35:08.268Z,84.14
2023-02-16T23:37:36.342Z,84.15
2023-02-16T23:40:05.474Z,83.90
2023-02-16T23:42:33.746Z,83.89
2023-02-16T23:45:01.790Z,84.01
2023-02-16T23:47:30.174Z,84.22
2023-02-16T23:49:58.128Z,84.13
2023-02-16T23:52:26.298Z,83.98
2023-02-16T23:54:54.400Z,84.06
2023-02-16T23:57:22.554Z,83.75
2023-02-16T23:59:50.645Z,83.79
